Latest Weather Observations for Mildura

IDN60801

Issued at 3:33 pm EDT Friday 30 January 2015 (issued every 30 minutes, with the page automatically refreshed every 10 minutes)

About weather observations | Map of weather stations | Latest weather observations for NSW | Other Formats
Station Details ID: 076031 Name: MILDURA AIRPORT Lat: -34.24 Lon: 142.09 Height: 50.0 m
Data from the previous 72 hours. | See also: Recent months at Mildura
Date/Time
EDT
Temp
°C
App
Temp
°C
Dew
Point
Rel
Hum
%
Delta-T
°C
Wind Press
QNH
hPa
Press
MSL
hPa
Rain
since 9 am
mm
Dir
 
Spd
km/h
Gust
km/h
Spd
kts
Gust
kts
30/03:30pm 26.6 20.8 -0.4 17 12.5 SSE 20 37 11 20 1011.8 1011.6 0.0
30/03:00pm 26.8 21.9 2.0 20 12.0 S 17 28 9 15 1012.4 1012.2 0.0
30/02:30pm 25.5 21.8 2.2 22 11.2 SSW 11 20 6 11 1012.8 1012.6 0.0
30/02:00pm 25.8 21.1 3.1 23 11.1 S 17 30 9 16 1013.2 1013.0 0.0
30/01:30pm 23.9 19.4 4.3 28 9.7 S 17 28 9 15 1013.8 1013.6 0.0
30/01:00pm 24.2 20.2 5.1 29 9.6 SSE 15 26 8 14 1014.1 1013.9 0.0
30/12:30pm 23.7 18.9 5.6 31 9.2 SE 20 28 11 15 1014.6 1014.4 0.0
30/12:00pm 23.2 19.5 6.5 34 8.6 S 15 28 8 15 1015.0 1014.8 0.0
30/11:30am 21.9 17.8 6.2 36 8.0 SE 17 26 9 14 1015.2 1015.0 0.0
30/11:00am 21.3 17.7 6.8 39 7.4 SE 15 22 8 12 1015.3 1015.1 0.0
30/10:30am 20.4 16.9 7.4 43 6.7 SE 15 24 8 13 1015.5 1015.3 0.0
30/10:00am 19.4 15.1 7.2 45 6.2 SE 19 28 10 15 1015.6 1015.4 0.0
30/09:00am 17.3 12.6 7.9 54 4.8 SE 22 30 12 16 1015.4 1015.2 0.0
30/08:30am 15.9 11.7 7.4 57 4.2 SSE 19 26 10 14 1015.4 1015.2 0.0
30/08:00am 15.0 11.9 7.1 59 3.9 SSE 13 22 7 12 1015.3 1015.1 0.0
30/07:30am 13.8 10.6 6.7 62 3.4 S 13 19 7 10 1014.9 1014.7 0.0
30/07:00am 13.5 11.1 7.1 65 3.1 S 9 15 5 8 1014.5 1014.3 0.0
30/06:30am 14.2 11.1 7.3 63 3.4 SSE 13 17 7 9 1014.1 1013.9 0.0
30/06:00am 14.6 11.9 7.4 62 3.6 SSE 11 17 6 9 1013.9 1013.7 0.0
30/05:30am 15.1 12.1 7.6 61 3.7 SSE 13 19 7 10 1013.6 1013.4 0.0
30/05:00am 15.3 12.6 7.3 59 4.0 SSE 11 17 6 9 1013.5 1013.3 0.0
30/04:30am 16.0 13.0 7.5 57 4.2 SSE 13 17 7 9 1013.4 1013.2 0.0
30/04:00am 17.0 12.8 7.4 53 4.8 SE 19 28 10 15 1013.5 1013.3 0.0
30/03:30am 17.2 13.3 7.0 51 5.1 SSE 17 22 9 12 1013.4 1013.2 0.0
30/03:00am 17.9 13.5 6.7 48 5.6 SE 19 24 10 13 1013.5 1013.3 0.0
30/02:30am 17.7 14.2 5.3 44 6.0 SSE 13 20 7 11 1013.5 1013.3 0.0
30/02:00am 18.2 14.1 4.4 40 6.6 SE 15 28 8 15 1013.6 1013.4 0.0
30/01:30am 18.1 14.1 2.8 36 7.1 SSE 13 20 7 11 1013.7 1013.5 0.0
30/01:00am 18.8 14.5 1.3 31 7.9 SSE 13 17 7 9 1013.8 1013.6 0.0
30/12:30am 19.3 15.3 0.8 29 8.3 S 11 15 6 8 1013.9 1013.7 0.0
30/12:00am 19.9 15.6 0.9 28 8.6 SSE 13 15 7 8 1013.7 1013.5 0.0
 
Date/Time
EDT
Temp
°C
App
Temp
°C
Dew
Point
Rel
Hum
%
Delta-T
°C
Wind Press
QNH
hPa
Press
MSL
hPa
Rain
since 9 am
mm
Dir
 
Spd
km/h
Gust
km/h
Spd
kts
Gust
kts
29/11:30pm 20.6 16.2 0.4 26 9.1 SSE 13 17 7 9 1013.7 1013.5 0.0
29/11:00pm 21.0 16.9 -0.3 24 9.4 SSE 11 13 6 7 1013.8 1013.6 0.0
29/10:30pm 21.3 17.6 -0.1 24 9.6 SSE 9 13 5 7 1013.7 1013.5 0.0
29/10:00pm 22.1 18.5 0.6 24 9.8 SSE 9 13 5 7 1013.4 1013.2 0.0
29/09:30pm 23.0 19.0 0.8 23 10.2 SSE 11 15 6 8 1013.1 1012.9 0.0
29/09:00pm 24.1 19.7 0.4 21 10.9 SE 13 17 7 9 1013.0 1012.8 0.0
29/08:30pm 25.8 20.5 -0.3 18 12.0 SSE 17 20 9 11 1012.9 1012.7 0.0
29/08:00pm 27.0 20.8 -0.1 17 12.7 SE 22 30 12 16 1012.6 1012.4 0.0
29/07:30pm 27.6 21.7 -0.5 16 13.1 SE 20 32 11 17 1012.4 1012.2 0.0
29/07:00pm 28.2 21.9 -0.9 15 13.5 SSE 22 33 12 18 1012.3 1012.1 0.0
29/06:30pm 28.8 23.0 -1.3 14 14.0 SSE 19 30 10 16 1012.2 1012.0 0.0
29/06:00pm 28.0 21.3 -1.0 15 13.4 SSE 24 37 13 20 1012.4 1012.2 0.0
29/05:30pm 28.9 22.6 -1.2 14 14.0 SSE 22 39 12 21 1012.5 1012.3 0.0
29/05:00pm 28.4 21.4 -0.7 15 13.6 SSE 26 39 14 21 1012.8 1012.6 0.0
29/04:30pm 28.4 21.9 0.2 16 13.4 SSE 24 35 13 19 1013.1 1012.9 0.0
29/04:00pm 28.5 22.4 0.3 16 13.4 SE 22 39 12 21 1013.4 1013.2 0.0
29/03:30pm 28.7 23.1 1.3 17 13.3 SSE 20 35 11 19 1013.7 1013.5 0.0
29/03:00pm 28.2 22.8 2.4 19 12.7 SSE 20 35 11 19 1014.1 1013.9 0.0
29/02:30pm 27.2 21.7 0.8 18 12.6 S 19 32 10 17 1014.4 1014.2 0.0
29/02:00pm 26.1 20.9 2.7 22 11.4 SE 19 30 10 16 1014.8 1014.6 0.0
29/01:30pm 26.0 20.5 3.9 24 11.0 SE 22 30 12 16 1015.1 1014.9 0.0
29/01:00pm 25.6 21.3 5.2 27 10.4 SSE 17 32 9 17 1015.6 1015.4 0.0
29/12:30pm 24.3 19.7 5.6 30 9.5 SSE 19 26 10 14 1015.9 1015.7 0.0
29/12:00pm 24.0 19.4 6.7 33 9.0 SSE 20 28 11 15 1016.0 1015.8 0.0
29/11:30am 23.1 18.1 6.4 34 8.6 SSE 22 33 12 18 1016.2 1016.0 0.0
29/11:00am 22.2 17.2 6.4 36 8.0 SE 22 30 12 16 1016.3 1016.1 0.0
29/10:30am 21.1 15.2 5.9 37 7.6 SE 26 35 14 19 1016.2 1016.0 0.0
29/10:00am 20.3 14.0 5.5 38 7.3 SE 28 37 15 20 1016.3 1016.1 0.0
29/09:30am 20.0 13.7 5.6 39 7.1 SE 28 37 15 20 1016.4 1016.2 0.0
29/09:00am 19.0 12.9 6.5 44 6.2 SE 28 39 15 21 1016.4 1016.2 -
29/08:30am 17.9 12.4 6.1 46 5.8 SE 24 35 13 19 1016.1 1015.9 -
29/08:00am 17.1 12.6 6.3 49 5.3 SSE 19 28 10 15 1015.7 1015.5 -
29/07:30am 16.4 12.3 6.2 51 5.0 SSE 17 26 9 14 1015.4 1015.2 -
29/07:00am 16.0 12.0 6.7 54 4.6 SSE 17 24 9 13 1015.0 1014.8 -
29/06:30am 16.3 12.7 6.7 53 4.7 SSE 15 20 8 11 1014.7 1014.5 -
29/06:00am 16.7 13.2 7.1 53 4.8 SSE 15 22 8 12 1014.4 1014.2 -
29/05:30am 16.9 13.4 7.3 53 4.8 SSE 15 20 8 11 1014.1 1013.9 -
29/05:00am 17.3 13.8 7.4 52 5.0 SSE 15 20 8 11 1013.8 1013.6 -
29/04:30am 17.7 13.9 7.4 51 5.2 SSE 17 20 9 11 1013.7 1013.5 -
29/04:00am 18.3 14.5 7.4 49 5.5 SSE 17 22 9 12 1013.6 1013.4 -
29/03:30am 19.0 14.8 7.4 47 5.9 SE 19 28 10 15 1013.5 1013.3 -
29/03:00am 19.6 15.4 7.4 45 6.2 SE 19 32 10 17 1013.6 1013.4 0.0
29/02:30am 20.4 15.3 7.7 44 6.6 SE 24 35 13 19 1013.8 1013.6 -
29/02:00am 21.2 16.1 7.8 42 7.0 SE 24 32 13 17 1013.8 1013.6 -
29/01:30am 21.8 16.9 6.9 38 7.6 SE 22 35 12 19 1013.9 1013.7 -
29/01:00am 22.4 17.3 5.8 34 8.4 SE 22 35 12 19 1013.8 1013.6 -
29/12:30am 22.7 17.9 4.7 31 8.9 SSE 19 24 10 13 1013.7 1013.5 -
29/12:00am 23.2 19.0 3.7 28 9.5 SSE 15 22 8 12 1013.4 1013.2 -
 
Date/Time
EDT
Temp
°C
App
Temp
°C
Dew
Point
Rel
Hum
%
Delta-T
°C
Wind Press
QNH
hPa
Press
MSL
hPa
Rain
since 9 am
mm
Dir
 
Spd
km/h
Gust
km/h
Spd
kts
Gust
kts
28/11:30pm 23.3 20.2 5.7 32 8.9 S 11 19 6 10 1013.2 1013.0 -
28/11:00pm 23.8 20.8 6.1 32 9.1 SSE 11 15 6 8 1012.9 1012.7 -
28/10:30pm 24.7 21.8 6.4 31 9.5 SSE 11 15 6 8 1013.0 1012.8 -
28/10:00pm 25.1 22.2 6.3 30 9.7 S 11 17 6 9 1012.7 1012.5 -
28/09:30pm 25.9 23.0 6.5 29 10.1 SSE 11 17 6 9 1012.3 1012.1 -
28/09:00pm 26.9 23.7 6.9 28 10.6 SSE 13 17 7 9 1012.1 1011.9 0.0
28/08:30pm 27.9 24.6 6.6 26 11.3 SSE 13 20 7 11 1011.8 1011.6 -
28/08:00pm 28.9 25.0 6.9 25 11.8 SSE 17 26 9 14 1011.7 1011.5 -
28/07:30pm 29.4 25.2 7.3 25 11.9 SSE 19 28 10 15 1011.4 1011.2 -
28/07:00pm 29.9 25.8 7.7 25 12.1 SE 19 28 10 15 1011.3 1011.1 -
28/06:30pm 30.2 26.4 7.4 24 12.4 SE 17 24 9 13 1011.1 1010.9 -
28/06:00pm 29.9 26.0 7.2 24 12.3 SSE 17 28 9 15 1011.3 1011.1 -
28/05:30pm 30.3 25.7 8.1 25 12.2 SE 22 32 12 17 1011.4 1011.2 -
28/05:00pm 29.7 25.8 9.3 28 11.4 SE 20 30 11 16 1011.5 1011.3 -
28/04:30pm 30.1 26.5 8.5 26 11.9 SSE 17 28 9 15 1011.7 1011.5 -
28/04:00pm 29.3 26.0 9.4 29 11.1 SE 17 32 9 17 1011.9 1011.7 -
28/03:30pm 29.4 25.4 9.0 28 11.3 SE 20 35 11 19 1012.2 1012.0 -
28/03:00pm 28.7 24.3 8.9 29 10.9 SE 22 30 12 16 1012.5 1012.3 0.0
28/02:30pm 28.2 24.5 9.5 31 10.4 SSE 19 26 10 14 1012.8 1012.6 -
28/02:00pm 26.7 22.7 9.1 33 9.7 S 20 32 11 17 1013.3 1013.1 -
28/01:30pm 25.9 22.4 8.8 34 9.3 SSE 17 26 9 14 1013.7 1013.5 -
28/01:00pm 24.6 21.0 8.5 36 8.6 S 17 26 9 14 1014.0 1013.8 0.0
28/12:30pm 24.0 20.1 8.8 38 8.2 SSE 19 32 10 17 1014.2 1014.0 0.0
28/12:00pm 22.3 18.1 8.1 40 7.5 SE 20 30 11 16 1014.4 1014.2 0.0
28/11:30am 22.0 18.1 8.5 42 7.1 SE 19 24 10 13 1014.7 1014.5 0.0
28/11:00am 20.5 16.5 8.2 45 6.4 SSE 19 32 10 17 1015.0 1014.8 0.0
28/10:30am 18.8 14.0 7.3 47 5.8 SSE 22 33 12 18 1015.2 1015.0 0.0
28/10:00am 18.4 13.6 7.2 48 5.6 SSE 22 32 12 17 1014.9 1014.7 0.0
28/09:47am 17.5 12.2 7.0 50 5.2 SSE 24 35 13 19 1014.9 1014.7 0.0
28/09:30am 17.1 11.5 7.2 52 5.0 SSE 26 39 14 21 1014.9 1014.7 0.0
28/09:00am 15.9 10.6 6.6 54 4.6 SSE 24 37 13 20 1014.8 1014.6 0.0
28/08:30am 14.7 9.3 6.3 57 4.1 SSE 24 41 13 22 1014.6 1014.4 0.0
28/08:00am 13.9 9.2 6.0 59 3.8 SSE 20 32 11 17 1014.5 1014.3 0.0
28/07:30am 13.1 8.6 6.0 62 3.4 S 19 28 10 15 1014.3 1014.1 0.0
28/07:00am 12.6 8.4 5.8 63 3.2 S 17 24 9 13 1014.0 1013.8 0.0
28/06:30am 12.8 8.2 5.7 62 3.3 SSE 19 30 10 16 1013.6 1013.4 0.0
28/06:00am 13.0 8.5 5.9 62 3.4 S 19 30 10 16 1013.6 1013.4 0.0
28/05:30am 13.2 8.6 5.6 60 3.6 S 19 28 10 15 1013.4 1013.2 0.0
28/05:00am 13.5 8.6 5.2 57 3.9 SSE 20 35 11 19 1013.2 1013.0 0.0
28/04:30am 14.0 8.7 5.1 55 4.2 SSE 22 32 12 17 1013.2 1013.0 0.0
28/04:00am 14.4 9.0 4.7 52 4.5 SSE 22 35 12 19 1013.5 1013.3 0.0
28/03:30am 15.0 10.1 5.0 51 4.7 SSE 20 33 11 18 1013.3 1013.1 0.0
28/03:00am 15.7 10.5 5.3 50 5.0 SSE 22 32 12 17 1013.4 1013.2 0.0
28/02:30am 16.5 10.9 5.5 48 5.3 SSE 24 37 13 20 1013.7 1013.5 0.0
28/02:00am 17.1 11.5 5.4 46 5.6 SSE 24 39 13 21 1013.8 1013.6 0.0
28/01:30am 18.0 12.4 5.2 43 6.2 SSE 24 37 13 20 1013.6 1013.4 0.0
28/01:00am 18.5 13.3 5.4 42 6.4 S 22 32 12 17 1013.5 1013.3 0.0
28/12:30am 19.4 13.8 5.5 40 6.8 S 24 35 13 19 1013.5 1013.3 0.0
28/12:00am 20.2 14.5 5.1 37 7.4 SSE 24 39 13 21 1013.2 1013.0 0.0
 
Date/Time
EDT
Temp
°C
App
Temp
°C
Dew
Point
Rel
Hum
%
Delta-T
°C
Wind Press
QNH
hPa
Press
MSL
hPa
Rain
since 9 am
mm
Dir
 
Spd
km/h
Gust
km/h
Spd
kts
Gust
kts
27/11:30pm 21.2 15.5 4.7 34 8.1 SSE 24 41 13 22 1013.1 1012.9 0.0
27/11:00pm 22.0 16.4 3.2 29 9.0 SSE 22 33 12 18 1013.0 1012.8 0.0
27/10:30pm 22.8 16.6 2.3 26 9.7 SSE 24 33 13 18 1012.8 1012.6 0.0
27/10:00pm 23.0 18.7 0.8 23 10.2 S 13 24 7 13 1012.4 1012.2 0.0
27/09:30pm 23.6 19.3 0.7 22 10.6 S 13 24 7 13 1012.0 1011.8 0.0
27/09:00pm 24.6 19.4 0.2 20 11.3 S 17 28 9 15 1011.5 1011.3 0.0
27/08:30pm 25.1 19.6 0.6 20 11.4 S 19 30 10 16 1011.5 1011.3 0.0
27/08:00pm 25.9 19.4 0.5 19 11.9 S 24 39 13 21 1011.2 1011.0 0.0
27/07:30pm 26.5 20.0 0.3 18 12.3 S 24 39 13 21 1010.8 1010.6 0.0
27/07:00pm 27.1 21.4 0.8 18 12.5 S 20 41 11 22 1010.6 1010.4 0.0
27/06:30pm 27.0 21.1 1.4 19 12.3 S 22 37 12 20 1010.6 1010.4 0.0
27/06:00pm 27.9 21.8 0.6 17 13.0 S 22 35 12 19 1010.7 1010.5 0.0
27/05:30pm 27.0 20.2 0.7 18 12.5 S 26 41 14 22 1010.8 1010.6 0.0
27/05:00pm 27.2 21.2 0.8 18 12.6 SSW 22 50 12 27 1010.9 1010.7 0.0
27/04:30pm 26.3 19.5 0.9 19 12.0 S 26 37 14 20 1011.3 1011.1 0.0
27/04:00pm 27.2 20.8 0.8 18 12.6 S 24 37 13 20 1011.5 1011.3 0.0

Other Formats:

Comma delimited format used in spreadsheet applications
http://www.bom.gov.au/fwo/IDN60801/IDN60801.94693.axf

JavaScript Object Notation format (JSON) in row-major order
http://www.bom.gov.au/fwo/IDN60801/IDN60801.94693.json